Time;durP1;ratioP1;P1;durP2;ratioP2;P2;SDS_P1;SDS_P2;PMS_P1;PMS_P2;Temp;Humidity;BMP_temperature;BMP_pressure;BME280_temperature;BME280_humidity;BME280_pressure;Samples;Min_cycle;Max_cycle;Signal;HPM_P1;HPM_P2
2022/07/25 00:00:43;;;;;;;8.20;5.63;;;23.30;99.90;;;;;;5017850;28;20165;-74
2022/07/25 00:03:09;;;;;;;5.13;4.70;;;23.40;99.90;;;;;;5016389;28;20498;-75
2022/07/25 00:05:34;;;;;;;8.27;6.40;;;23.40;99.90;;;;;;5017817;28;20256;-73
2022/07/25 00:08:00;;;;;;;5.90;5.20;;;23.30;99.90;;;;;;5018320;28;20169;-75
2022/07/25 00:10:27;;;;;;;5.17;4.83;;;23.40;99.90;;;;;;5017784;28;20208;-76
2022/07/25 00:12:54;;;;;;;5.83;4.73;;;23.30;99.90;;;;;;5018007;28;20547;-74
2022/07/25 00:15:20;;;;;;;5.83;5.43;;;23.30;99.90;;;;;;5017545;28;20193;-74
2022/07/25 00:17:45;;;;;;;7.93;5.13;;;23.30;99.90;;;;;;5017842;28;20253;-73
2022/07/25 00:20:11;;;;;;;7.07;4.57;;;23.20;99.90;;;;;;5017676;28;20177;-73
2022/07/25 00:22:37;;;;;;;5.47;4.97;;;23.30;99.90;;;;;;5017795;28;20237;-75
2022/07/25 00:25:04;;;;;;;5.37;4.97;;;23.30;99.90;;;;;;5028350;28;20158;-75
2022/07/25 00:27:30;;;;;;;7.20;4.70;;;23.30;99.90;;;;;;5032123;28;20172;-74
2022/07/25 00:29:55;;;;;;;5.20;4.60;;;23.40;99.90;;;;;;5019757;28;20170;-74
2022/07/25 00:32:21;;;;;;;7.63;4.37;;;23.50;99.90;;;;;;5017743;28;20595;-75
2022/07/25 00:34:47;;;;;;;5.23;4.73;;;23.50;99.90;;;;;;5017440;28;20215;-75
2022/07/25 00:37:13;;;;;;;5.23;4.83;;;23.50;99.90;;;;;;5017117;28;20219;-74
2022/07/25 00:39:38;;;;;;;6.33;5.37;;;23.50;99.90;;;;;;5016630;28;20573;-75
2022/07/25 00:42:04;;;;;;;4.87;4.33;;;23.40;99.90;;;;;;5017046;28;20519;-74
2022/07/25 00:44:32;;;;;;;6.93;5.30;;;23.30;99.90;;;;;;5016576;28;20279;-76
2022/07/25 00:46:58;;;;;;;4.80;4.40;;;23.30;99.90;;;;;;5016787;28;20170;-75
2022/07/25 00:49:25;;;;;;;5.60;5.20;;;23.30;99.90;;;;;;5016446;28;20180;-75
2022/07/25 00:51:53;;;;;;;6.83;6.13;;;23.20;99.90;;;;;;5016518;28;20194;-75
2022/07/25 00:54:19;;;;;;;5.03;4.67;;;23.10;99.90;;;;;;5016241;28;20165;-76
2022/07/25 00:56:45;;;;;;;4.90;4.43;;;23.00;99.90;;;;;;5015718;28;20605;-74
2022/07/25 00:59:10;;;;;;;5.10;4.60;;;22.90;99.90;;;;;;5016619;28;20169;-76
2022/07/25 01:01:37;;;;;;;6.97;5.20;;;22.90;99.90;;;;;;5016560;28;20209;-75
2022/07/25 01:04:04;;;;;;;8.53;5.13;;;22.90;99.90;;;;;;5015664;28;20711;-76
2022/07/25 01:06:31;;;;;;;6.60;5.33;;;22.80;99.90;;;;;;5016232;28;20223;-76
2022/07/25 01:08:57;;;;;;;5.20;4.80;;;22.90;99.90;;;;;;5016717;28;20184;-75
2022/07/25 01:11:24;;;;;;;5.23;4.83;;;22.70;99.90;;;;;;5016211;28;20204;-77
2022/07/25 01:13:50;;;;;;;5.13;4.57;;;22.60;99.90;;;;;;5016348;28;20173;-74
2022/07/25 01:16:16;;;;;;;6.20;5.17;;;22.40;99.90;;;;;;5016152;28;20186;-75
2022/07/25 01:18:42;;;;;;;4.90;4.50;;;22.40;99.90;;;;;;5016472;28;20170;-75
2022/07/25 01:21:08;;;;;;;7.07;5.30;;;22.30;99.90;;;;;;5015981;28;20169;-76
2022/07/25 01:23:34;;;;;;;5.00;4.60;;;22.20;99.90;;;;;;5016210;28;20216;-74
2022/07/25 01:26:00;;;;;;;4.87;4.47;;;22.30;99.90;;;;;;5016204;28;20169;-75
2022/07/25 01:28:26;;;;;;;6.33;5.83;;;22.20;99.90;;;;;;5016217;28;20169;-75
2022/07/25 01:30:51;;;;;;;5.40;4.97;;;22.30;99.90;;;;;;5015855;28;20200;-75
2022/07/25 01:33:20;;;;;;;4.83;4.37;;;22.30;99.90;;;;;;5015988;28;20180;-76
2022/07/25 01:35:48;;;;;;;5.10;4.77;;;22.30;99.90;;;;;;5015850;28;20168;-75
2022/07/25 01:38:17;;;;;;;4.40;4.10;;;22.30;99.90;;;;;;5014996;28;20169;-75
2022/07/25 01:40:43;;;;;;;5.83;5.43;;;22.20;99.90;;;;;;5015906;28;20161;-74
2022/07/25 01:43:10;;;;;;;9.27;6.67;;;22.10;99.90;;;;;;5015968;28;20166;-76
2022/07/25 01:45:36;;;;;;;7.30;6.00;;;22.10;99.90;;;;;;5015615;28;20173;-76
2022/07/25 01:48:02;;;;;;;5.50;5.10;;;22.10;99.90;;;;;;5016002;28;20468;-75
2022/07/25 01:50:28;;;;;;;5.47;4.80;;;22.20;99.90;;;;;;5015101;28;20208;-74
2022/07/25 01:52:54;;;;;;;5.30;4.73;;;22.20;99.90;;;;;;5016136;28;20169;-75
2022/07/25 01:55:19;;;;;;;6.07;4.93;;;22.30;99.90;;;;;;5015002;28;20565;-75
2022/07/25 01:57:45;;;;;;;6.77;5.00;;;22.40;99.90;;;;;;5015757;28;20169;-74
2022/07/25 02:00:15;;;;;;;4.37;4.07;;;22.30;99.90;;;;;;5015733;28;20173;-75
2022/07/25 02:02:43;;;;;;;5.37;4.83;;;22.30;99.90;;;;;;5015708;28;20165;-76
2022/07/25 02:05:11;;;;;;;5.20;4.70;;;22.20;99.90;;;;;;5015735;28;20195;-76
2022/07/25 02:07:37;;;;;;;4.63;4.33;;;22.30;99.90;;;;;;5015697;28;20752;-75
2022/07/25 02:10:05;;;;;;;5.03;4.57;;;22.20;99.90;;;;;;5014796;28;20229;-76
2022/07/25 02:12:31;;;;;;;4.33;4.03;;;22.20;99.90;;;;;;5015623;28;20173;-75
2022/07/25 02:14:57;;;;;;;6.27;4.63;;;22.30;99.90;;;;;;5015377;28;20232;-73
2022/07/25 02:17:23;;;;;;;5.30;4.80;;;22.30;99.90;;;;;;5015690;28;20166;-76
2022/07/25 02:19:49;;;;;;;6.07;5.67;;;22.40;99.90;;;;;;5015526;28;20216;-76
2022/07/25 02:22:15;;;;;;;5.03;4.57;;;22.50;99.90;;;;;;5015382;28;20564;-76
2022/07/25 02:24:41;;;;;;;8.07;4.63;;;22.50;99.90;;;;;;5015760;28;20292;-74
2022/07/25 02:27:07;;;;;;;5.10;4.40;;;22.60;99.90;;;;;;5015681;28;20636;-75
2022/07/25 02:29:32;;;;;;;6.47;4.87;;;22.60;99.90;;;;;;5015764;28;20169;-76
2022/07/25 02:31:58;;;;;;;5.73;4.93;;;22.60;99.90;;;;;;5015594;28;20616;-75
2022/07/25 02:34:24;;;;;;;5.07;4.60;;;22.60;99.90;;;;;;5015403;28;20503;-75
2022/07/25 02:36:50;;;;;;;5.00;4.57;;;22.40;99.90;;;;;;5015603;28;20169;-74
2022/07/25 02:39:16;;;;;;;8.47;5.10;;;22.10;99.90;;;;;;5015663;28;20466;-74
2022/07/25 02:41:42;;;;;;;5.37;4.97;;;21.80;99.90;;;;;;5015507;28;20181;-76
2022/07/25 02:44:08;;;;;;;4.83;4.20;;;21.80;99.90;;;;;;5015549;28;20185;-74
2022/07/25 02:46:34;;;;;;;4.60;4.20;;;21.30;99.90;;;;;;5015841;28;20178;-76
2022/07/25 02:49:00;;;;;;;5.87;4.73;;;20.50;99.90;;;;;;5015452;28;20201;-73
2022/07/25 02:51:26;;;;;;;4.73;4.33;;;18.30;99.90;;;;;;5015394;28;20201;-73
2022/07/25 02:53:52;;;;;;;4.73;4.33;;;18.30;99.90;;;;;;5015523;28;20561;-74
2022/07/25 02:56:18;;;;;;;5.97;5.50;;;18.30;99.90;;;;;;5014614;28;20220;-74
2022/07/25 02:58:44;;;;;;;5.97;5.37;;;18.40;99.90;;;;;;5015341;28;20508;-75
2022/07/25 03:01:10;;;;;;;5.87;5.23;;;19.20;99.90;;;;;;5015314;28;20576;-76
2022/07/25 03:03:35;;;;;;;5.60;4.77;;;18.70;99.90;;;;;;5018297;28;20249;-75
2022/07/25 03:06:01;;;;;;;5.13;4.67;;;18.30;99.90;;;;;;5018903;28;20173;-74
2022/07/25 03:08:28;;;;;;;5.20;4.70;;;21.10;99.90;;;;;;5018776;28;20611;-74
2022/07/25 03:10:54;;;;;;;4.70;4.27;;;21.50;99.90;;;;;;5018861;28;20201;-73
2022/07/25 03:13:19;;;;;;;5.30;4.90;;;21.40;99.90;;;;;;5018375;28;20165;-75
2022/07/25 03:15:45;;;;;;;5.57;5.03;;;21.50;99.90;;;;;;5018696;28;20185;-74
2022/07/25 03:18:11;;;;;;;6.67;6.00;;;21.40;99.90;;;;;;5018355;28;20169;-74
2022/07/25 03:20:37;;;;;;;5.20;4.80;;;21.30;99.90;;;;;;5018536;28;20178;-74
2022/07/25 03:23:03;;;;;;;5.27;4.77;;;21.20;99.90;;;;;;5018408;28;20173;-74
2022/07/25 03:25:28;;;;;;;5.33;5.03;;;21.00;99.90;;;;;;5018335;28;20169;-75
2022/07/25 03:27:55;;;;;;;8.07;5.77;;;20.40;99.90;;;;;;5018237;28;20249;-73
2022/07/25 03:30:21;;;;;;;5.27;4.87;;;19.60;99.90;;;;;;5018416;28;20201;-73
2022/07/25 03:32:47;;;;;;;6.00;5.43;;;18.60;99.90;;;;;;5017944;28;20260;-74
2022/07/25 03:35:12;;;;;;;6.73;5.73;;;-40.00;98.00;;;;;;5018293;28;20643;-74
2022/07/25 03:37:38;;;;;;;5.50;5.00;;;-40.00;97.50;;;;;;5018113;28;20212;-72
2022/07/25 03:40:05;;;;;;;9.37;6.63;;;-40.00;98.80;;;;;;5018199;28;20169;-75
2022/07/25 03:42:31;;;;;;;7.30;4.50;;;-40.00;98.30;;;;;;5017901;28;20599;-74
2022/07/25 03:44:57;;;;;;;7.00;4.70;;;-40.00;98.50;;;;;;5018264;28;20276;-73
2022/07/25 03:47:22;;;;;;;5.60;5.13;;;-40.00;95.70;;;;;;5017825;28;20197;-73
2022/07/25 03:49:48;;;;;;;5.30;4.53;;;-40.00;95.30;;;;;;5017849;28;20196;-74
2022/07/25 03:52:14;;;;;;;5.00;4.60;;;-40.00;94.90;;;;;;5017859;28;20165;-74
2022/07/25 03:54:39;;;;;;;6.90;4.60;;;-33.70;95.20;;;;;;5017821;28;20172;-73
2022/07/25 03:57:05;;;;;;;7.37;5.43;;;-37.90;93.60;;;;;;5017935;28;20228;-74
2022/07/25 03:59:31;;;;;;;6.07;5.47;;;-40.00;92.90;;;;;;5018057;28;20243;-75
2022/07/25 04:01:57;;;;;;;5.10;4.60;;;-40.00;92.40;;;;;;5017770;28;20257;-74
2022/07/25 04:04:23;;;;;;;5.13;4.73;;;-40.00;92.20;;;;;;5018492;28;20224;-74
2022/07/25 04:06:48;;;;;;;5.13;4.63;;;-40.00;92.20;;;;;;5001872;28;20166;-73
2022/07/25 04:09:15;;;;;;;9.07;5.57;;;-40.00;92.40;;;;;;5018688;28;20177;-73
2022/07/25 04:11:42;;;;;;;9.03;5.63;;;-38.60;92.90;;;;;;5017613;28;20616;-72
2022/07/25 04:14:08;;;;;;;7.90;5.30;;;-38.40;93.10;;;;;;5017174;28;20185;-74
2022/07/25 04:16:35;;;;;;;5.20;4.70;;;-40.00;93.30;;;;;;5017534;28;20231;-72
2022/07/25 04:19:00;;;;;;;5.60;5.20;;;-40.00;92.70;;;;;;5018035;28;20176;-73
2022/07/25 04:21:26;;;;;;;5.13;4.83;;;-40.00;92.20;;;;;;5018321;28;20240;-74
2022/07/25 04:23:52;;;;;;;5.47;4.67;;;-40.00;91.30;;;;;;5017793;28;20177;-73
2022/07/25 04:26:18;;;;;;;5.20;4.70;;;-40.00;90.80;;;;;;5019790;28;20174;-74
2022/07/25 04:28:44;;;;;;;5.23;4.50;;;-40.00;90.60;;;;;;5019701;28;20170;-73
2022/07/25 04:31:10;;;;;;;5.40;4.57;;;-40.00;90.70;;;;;;5001274;28;20207;-74
2022/07/25 04:33:37;;;;;;;5.37;4.23;;;-40.00;89.20;;;;;;5022577;28;20165;-74
2022/07/25 04:36:04;;;;;;;8.77;4.57;;;-40.00;89.70;;;;;;5024038;28;20161;-73
2022/07/25 04:38:29;;;;;;;4.87;4.40;;;-40.00;89.40;;;;;;5017058;28;20174;-74
2022/07/25 04:40:55;;;;;;;6.80;4.17;;;-40.00;87.70;;;;;;5017137;28;20173;-74
2022/07/25 04:43:24;;;;;;;6.13;3.87;;;-40.00;87.90;;;;;;5017190;28;20220;-74
2022/07/25 04:45:50;;;;;;;4.80;3.90;;;-40.00;87.20;;;;;;5016686;28;20232;-73
2022/07/25 04:48:15;;;;;;;4.97;3.80;;;-40.00;88.20;;;;;;5016159;28;20181;-73
2022/07/25 04:50:41;;;;;;;7.43;4.30;;;-40.00;88.20;;;;;;5016706;28;20513;-72
2022/07/25 04:53:08;;;;;;;7.70;3.00;;;-29.80;90.70;;;;;;5017135;28;20170;-74
2022/07/25 04:55:35;;;;;;;3.10;2.90;;;-30.40;90.30;;;;;;5016751;28;20232;-74
2022/07/25 04:58:00;;;;;;;7.10;3.37;;;-31.80;87.50;;;;;;5016980;28;20173;-73
2022/07/25 05:00:26;;;;;;;4.37;2.83;;;-33.20;86.10;;;;;;5016402;28;20475;-73
2022/07/25 05:02:52;;;;;;;5.20;3.87;;;-40.00;81.00;;;;;;5016751;28;20169;-74
2022/07/25 05:05:19;;;;;;;5.57;3.00;;;-40.00;79.90;;;;;;5016583;28;20205;-73
2022/07/25 05:07:45;;;;;;;2.97;2.60;;;-40.00;82.00;;;;;;5016410;28;20170;-74
2022/07/25 05:10:11;;;;;;;3.63;3.23;;;-40.00;81.90;;;;;;5016424;28;20201;-74
2022/07/25 05:12:37;;;;;;;5.90;2.43;;;-40.00;82.10;;;;;;5016546;28;20180;-73
2022/07/25 05:15:04;;;;;;;3.03;2.47;;;-40.00;81.60;;;;;;5015979;28;20181;-73
2022/07/25 05:17:30;;;;;;;2.37;2.17;;;-40.00;82.40;;;;;;5016431;28;20173;-72
2022/07/25 05:19:58;;;;;;;4.83;2.83;;;-40.00;83.40;;;;;;5016398;28;20165;-74
2022/07/25 05:22:24;;;;;;;5.63;2.93;;;-40.00;83.60;;;;;;5015341;28;20208;-74
2022/07/25 05:24:50;;;;;;;9.90;2.63;;;-40.00;84.40;;;;;;5015555;28;20624;-74
2022/07/25 05:27:16;;;;;;;4.67;1.87;;;-40.00;84.30;;;;;;5016270;28;20169;-73
2022/07/25 05:29:41;;;;;;;6.07;2.43;;;-40.00;85.10;;;;;;5016066;28;20165;-74
2022/07/25 05:32:08;;;;;;;5.37;2.40;;;-40.00;86.30;;;;;;5015892;28;20201;-73
2022/07/25 05:34:34;;;;;;;7.30;2.73;;;-40.00;86.30;;;;;;5016316;28;20244;-73
2022/07/25 05:37:00;;;;;;;6.27;2.20;;;-40.00;86.70;;;;;;5016191;28;20166;-74
2022/07/25 05:39:26;;;;;;;4.40;1.70;;;-40.00;86.90;;;;;;5015553;28;20521;-75
2022/07/25 05:41:52;;;;;;;3.83;2.00;;;-40.00;89.50;;;;;;5006944;28;20272;-75
2022/07/25 05:44:17;;;;;;;4.60;2.27;;;-40.00;90.20;;;;;;5007161;28;20546;-74
2022/07/25 05:46:43;;;;;;;3.17;2.00;;;-40.00;90.70;;;;;;4998297;28;20185;-75
2022/07/25 05:49:09;;;;;;;6.60;2.50;;;-36.40;91.90;;;;;;5002556;28;20205;-75
2022/07/25 05:51:35;;;;;;;4.17;2.27;;;-40.00;91.20;;;;;;5005931;28;20204;-77
2022/07/25 05:54:02;;;;;;;6.30;2.80;;;-40.00;92.20;;;;;;5015319;28;20178;-76
2022/07/25 05:56:28;;;;;;;6.00;2.37;;;-32.10;94.80;;;;;;5005658;28;20227;-77
2022/07/25 05:58:54;;;;;;;7.57;3.97;;;-30.10;95.80;;;;;;4996372;28;20185;-76
2022/07/25 06:01:20;;;;;;;13.77;7.50;;;-37.90;93.90;;;;;;4995199;28;20617;-74
2022/07/25 06:03:46;;;;;;;7.23;3.40;;;-36.70;93.90;;;;;;4994374;28;20290;-73
2022/07/25 06:06:12;;;;;;;9.73;3.40;;;-27.40;96.60;;;;;;4995470;28;20195;-75
2022/07/25 06:08:38;;;;;;;5.93;4.03;;;-30.60;95.40;;;;;;5001104;28;20185;-75
2022/07/25 06:11:06;;;;;;;4.60;2.33;;;-34.40;93.70;;;;;;5001220;28;20217;-74
2022/07/25 06:13:33;;;;;;;3.87;3.47;;;-38.20;90.80;;;;;;5004941;28;20308;-74
2022/07/25 06:15:59;;;;;;;9.23;4.80;;;-34.80;92.20;;;;;;5004295;28;20246;-75
2022/07/25 06:18:26;;;;;;;3.80;3.00;;;-37.90;91.20;;;;;;5006707;28;20252;-76
2022/07/25 06:20:52;;;;;;;4.50;2.47;;;-38.30;89.60;;;;;;5015723;28;20485;-73
2022/07/25 06:23:18;;;;;;;6.70;4.53;;;-37.20;90.80;;;;;;5015574;28;20178;-74
2022/07/25 06:25:45;;;;;;;8.17;4.07;;;-33.40;91.60;;;;;;5014257;28;20166;-74
2022/07/25 06:28:13;;;;;;;5.60;2.13;;;-35.70;91.10;;;;;;5014125;28;20169;-75
2022/07/25 06:30:43;;;;;;;5.17;2.20;;;-40.00;89.70;;;;;;5014640;28;20239;-75
2022/07/25 06:33:10;;;;;;;2.30;2.03;;;-40.00;90.50;;;;;;5015138;28;20166;-74
2022/07/25 06:35:36;;;;;;;2.93;2.23;;;-40.00;90.70;;;;;;5015775;28;20466;-76
2022/07/25 06:38:02;;;;;;;4.73;2.40;;;-40.00;91.60;;;;;;5019127;28;20166;-74
2022/07/25 06:40:28;;;;;;;2.43;2.23;;;-40.00;92.00;;;;;;5019049;28;20584;-74
2022/07/25 06:42:55;;;;;;;3.33;2.07;;;-40.00;92.40;;;;;;5018510;28;20200;-74
2022/07/25 06:45:21;;;;;;;2.10;2.00;;;-36.20;93.70;;;;;;5000088;28;20182;-76
2022/07/25 06:47:47;;;;;;;7.33;2.90;;;-34.90;94.80;;;;;;5011793;28;20731;-76
2022/07/25 06:50:17;;;;;;;6.10;1.70;;;-40.00;94.30;;;;;;4994767;28;20241;-73
2022/07/25 06:52:43;;;;;;;2.80;1.87;;;12.50;99.90;;;;;;5009003;28;20219;-72
2022/07/25 06:55:10;;;;;;;6.30;2.37;;;21.70;99.90;;;;;;5012906;28;20172;-76
2022/07/25 06:57:36;;;;;;;3.97;1.57;;;21.80;99.90;;;;;;5017167;28;20180;-75
2022/07/25 07:00:08;;;;;;;5.60;2.57;;;21.90;99.90;;;;;;5017834;28;20270;-73
2022/07/25 07:02:35;;;;;;;4.80;3.10;;;21.90;99.90;;;;;;5018210;28;20626;-75
2022/07/25 07:05:01;;;;;;;5.13;2.77;;;21.30;99.90;;;;;;5018057;28;20257;-74
2022/07/25 07:07:26;;;;;;;5.20;1.80;;;22.20;99.90;;;;;;5018766;28;20577;-74
2022/07/25 07:09:52;;;;;;;10.70;3.20;;;22.10;99.90;;;;;;5018259;28;20173;-73
2022/07/25 07:12:18;;;;;;;2.00;1.60;;;22.30;99.90;;;;;;5018109;28;20548;-73
2022/07/25 07:14:44;;;;;;;5.47;2.27;;;22.30;99.90;;;;;;5018528;28;20521;-76
2022/07/25 07:17:09;;;;;;;5.70;2.67;;;22.30;99.90;;;;;;5018268;28;20181;-74
2022/07/25 07:19:42;;;;;;;2.43;1.97;;;22.40;99.90;;;;;;5018138;28;20170;-74
2022/07/25 07:22:08;;;;;;;3.13;2.10;;;22.30;99.90;;;;;;5017785;28;20454;-75
2022/07/25 07:24:34;;;;;;;3.97;2.53;;;22.20;99.90;;;;;;5019798;28;20184;-74
2022/07/25 07:26:59;;;;;;;3.37;2.10;;;22.20;99.90;;;;;;5018379;28;20189;-77
2022/07/25 07:29:26;;;;;;;2.43;1.67;;;22.10;99.90;;;;;;5018122;28;20569;-74
2022/07/25 07:31:52;;;;;;;7.60;1.93;;;22.10;99.90;;;;;;5017637;28;20232;-75
2022/07/25 07:34:17;;;;;;;1.50;1.40;;;22.10;99.90;;;;;;5018238;28;20173;-75
2022/07/25 07:36:43;;;;;;;4.40;2.00;;;22.20;99.90;;;;;;5017390;28;20644;-74
2022/07/25 07:39:09;;;;;;;4.53;2.23;;;22.40;99.90;;;;;;5017395;28;20478;-73
2022/07/25 07:41:34;;;;;;;1.47;1.37;;;22.10;99.90;;;;;;5017805;28;20264;-75
2022/07/25 07:44:00;;;;;;;3.80;1.70;;;22.10;99.90;;;;;;5016568;28;20256;-76
2022/07/25 07:46:26;;;;;;;2.93;1.80;;;22.10;99.90;;;;;;5018180;28;20467;-76
2022/07/25 07:48:52;;;;;;;5.07;2.60;;;22.20;99.90;;;;;;5017260;28;20189;-73
2022/07/25 07:51:17;;;;;;;4.73;1.53;;;22.30;99.90;;;;;;5016900;28;20263;-75
2022/07/25 07:56:29;;;;;;;1.73;1.50;;;22.50;99.90;;;;;;5017956;28;20216;-74
2022/07/25 07:58:55;;;;;;;4.83;2.53;;;22.30;99.90;;;;;;5018259;28;20236;-74
2022/07/25 08:01:21;;;;;;;2.60;1.30;;;22.30;99.90;;;;;;5017691;28;20166;-74
2022/07/25 08:03:46;;;;;;;1.40;1.40;;;22.30;99.90;;;;;;5019292;28;20177;-77
2022/07/25 08:06:12;;;;;;;2.73;2.03;;;22.40;99.90;;;;;;5020071;28;20273;-75
2022/07/25 08:08:38;;;;;;;4.03;1.47;;;22.50;99.90;;;;;;5019294;28;20253;-75
2022/07/25 08:11:04;;;;;;;1.83;1.00;;;22.60;99.90;;;;;;5018495;28;20222;-75
2022/07/25 08:13:32;;;;;;;1.47;1.40;;;22.50;99.90;;;;;;5017030;28;20219;-76
2022/07/25 08:16:00;;;;;;;3.63;1.23;;;22.40;99.90;;;;;;5017532;28;20577;-76
2022/07/25 08:18:28;;;;;;;2.03;1.20;;;22.50;99.90;;;;;;5016474;28;20203;-75
2022/07/25 08:20:55;;;;;;;1.53;1.43;;;22.50;99.90;;;;;;5003385;28;20178;-72
2022/07/25 08:23:21;;;;;;;2.00;1.30;;;22.50;99.90;;;;;;5006196;28;20185;-75
2022/07/25 08:25:48;;;;;;;2.10;1.90;;;22.70;99.90;;;;;;5016994;28;20205;-74
2022/07/25 08:28:15;;;;;;;2.23;1.37;;;22.80;99.90;;;;;;5015941;28;20600;-74
2022/07/25 08:30:41;;;;;;;3.80;1.53;;;22.70;99.90;;;;;;5017213;28;20292;-74
2022/07/25 08:33:09;;;;;;;3.57;2.17;;;22.80;99.90;;;;;;5017714;28;20172;-75
2022/07/25 08:35:36;;;;;;;3.30;1.97;;;22.80;99.90;;;;;;5017904;28;20220;-72
2022/07/25 08:38:03;;;;;;;2.07;1.83;;;22.80;99.90;;;;;;5020190;28;20212;-75
2022/07/25 08:40:31;;;;;;;4.07;1.47;;;22.90;99.90;;;;;;5019155;28;20184;-73
2022/07/25 08:42:57;;;;;;;2.77;2.07;;;22.90;99.90;;;;;;5018471;28;20174;-73
2022/07/25 08:45:25;;;;;;;4.17;1.60;;;22.70;99.90;;;;;;5016897;28;20227;-76
2022/07/25 08:47:53;;;;;;;4.70;1.77;;;22.80;99.90;;;;;;5016858;28;20208;-73
2022/07/25 08:50:22;;;;;;;3.20;2.07;;;22.60;99.90;;;;;;5016556;28;20510;-74
2022/07/25 08:52:49;;;;;;;4.50;2.20;;;22.70;99.90;;;;;;5015981;28;20694;-74
2022/07/25 08:55:21;;;;;;;2.30;1.70;;;22.90;99.90;;;;;;5016489;28;20166;-73
2022/07/25 08:57:49;;;;;;;2.53;1.77;;;22.90;99.90;;;;;;5016208;28;20192;-73
2022/07/25 09:00:18;;;;;;;1.90;1.17;;;23.00;99.90;;;;;;5014295;28;20272;-74
2022/07/25 09:02:50;;;;;;;2.63;1.50;;;23.00;99.90;;;;;;5016382;28;20534;-75
2022/07/25 09:05:18;;;;;;;3.67;2.20;;;23.00;99.90;;;;;;5015051;28;20169;-72
2022/07/25 09:07:44;;;;;;;1.17;1.10;;;22.90;99.90;;;;;;5016730;28;20162;-73
2022/07/25 09:10:12;;;;;;;2.40;1.90;;;23.00;99.90;;;;;;5016120;28;20236;-74
2022/07/25 09:12:39;;;;;;;1.90;1.17;;;23.00;99.90;;;;;;5011006;28;20252;-75
2022/07/25 09:15:07;;;;;;;2.20;1.70;;;22.90;99.90;;;;;;5013787;28;20197;-73
2022/07/25 09:17:36;;;;;;;1.13;1.03;;;23.00;99.90;;;;;;5016226;28;20476;-73
2022/07/25 09:20:05;;;;;;;2.10;1.37;;;23.10;99.90;;;;;;5015569;28;20180;-73
2022/07/25 09:22:41;;;;;;;6.33;1.33;;;23.20;99.90;;;;;;5016006;28;20493;-74
2022/07/25 09:25:22;;;;;;;2.77;1.60;;;23.10;99.90;;;;;;5016110;28;20674;-74
2022/07/25 09:27:48;;;;;;;4.50;1.30;;;23.20;99.90;;;;;;5016080;28;20545;-75
2022/07/25 09:30:14;;;;;;;1.30;1.10;;;23.20;99.90;;;;;;5015639;28;20251;-77
2022/07/25 09:32:40;;;;;;;1.70;1.60;;;22.90;99.90;;;;;;5016174;28;20177;-74
2022/07/25 09:35:07;;;;;;;1.20;1.10;;;22.90;99.90;;;;;;5015398;28;20245;-75
2022/07/25 09:37:32;;;;;;;1.67;1.57;;;-40.00;90.30;;;;;;5006664;28;20165;-76
2022/07/25 09:39:59;;;;;;;2.33;1.53;;;-29.00;94.10;;;;;;5001478;28;20184;-74
2022/07/25 09:42:30;;;;;;;1.80;1.53;;;18.00;99.90;;;;;;5001807;28;20200;-74
2022/07/25 09:45:12;;;;;;;2.77;1.50;;;24.40;99.90;;;;;;5014661;28;20180;-73
2022/07/25 09:47:59;;;;;;;2.93;1.30;;;24.40;99.90;;;;;;5015515;28;20216;-74
2022/07/25 09:50:28;;;;;;;2.30;2.10;;;24.60;99.90;;;;;;5005448;28;20197;-74
2022/07/25 09:52:55;;;;;;;1.27;1.17;;;24.30;99.90;;;;;;5008138;28;20174;-74
2022/07/25 09:55:22;;;;;;;2.37;1.43;;;24.10;99.90;;;;;;5015459;28;20177;-75
2022/07/25 09:57:51;;;;;;;3.47;1.87;;;24.00;99.90;;;;;;5015941;28;20185;-73
2022/07/25 10:00:24;;;;;;;1.77;1.20;;;24.20;99.90;;;;;;5015789;28;20583;-73
2022/07/25 10:03:38;;;;;;;6.20;2.37;;;24.20;99.90;;;;;;5016524;28;20166;-74
2022/07/25 10:06:16;;;;;;;2.00;1.63;;;24.20;99.90;;;;;;4971149;28;20285;-75
2022/07/25 10:08:42;;;;;;;2.93;1.73;;;24.40;99.90;;;;;;4997118;28;20174;-75
2022/07/25 10:11:19;;;;;;;1.83;1.57;;;24.40;99.90;;;;;;4997914;28;20201;-76
2022/07/25 10:13:45;;;;;;;1.90;1.43;;;24.20;99.90;;;;;;5000736;28;20472;-73
2022/07/25 10:16:26;;;;;;;1.70;1.40;;;24.20;99.90;;;;;;4999224;28;20194;-75
2022/07/25 10:18:54;;;;;;;2.70;2.30;;;24.30;99.90;;;;;;5018462;28;20611;-75
2022/07/25 10:21:22;;;;;;;3.00;1.70;;;24.00;99.90;;;;;;5018876;28;20235;-74
2022/07/25 10:24:05;;;;;;;3.00;1.93;;;24.00;99.90;;;;;;5019628;28;20204;-75
2022/07/25 10:26:34;;;;;;;3.63;1.60;;;24.00;99.90;;;;;;5019695;28;20580;-75
2022/07/25 10:29:01;;;;;;;3.70;1.73;;;23.80;99.90;;;;;;5018671;28;20208;-75
2022/07/25 10:31:32;;;;;;;3.57;2.33;;;23.90;99.90;;;;;;5019323;28;20259;-75
2022/07/25 10:34:26;;;;;;;5.03;2.43;;;24.00;99.90;;;;;;5019178;28;20173;-75
2022/07/25 10:36:55;;;;;;;5.67;2.17;;;24.20;99.90;;;;;;5019496;28;20165;-74
2022/07/25 10:39:22;;;;;;;6.33;2.47;;;24.20;99.90;;;;;;5019582;28;20179;-75
2022/07/25 10:41:58;;;;;;;4.10;1.67;;;24.40;99.90;;;;;;5019251;28;20576;-77
2022/07/25 10:44:29;;;;;;;3.13;2.33;;;24.90;99.90;;;;;;5019103;28;20903;-74
2022/07/25 10:47:11;;;;;;;4.37;2.30;;;24.90;99.90;;;;;;5019038;28;20488;-76
2022/07/25 10:49:42;;;;;;;5.87;3.10;;;24.80;99.90;;;;;;5019069;28;20185;-76
2022/07/25 10:52:16;;;;;;;2.57;2.37;;;24.80;99.90;;;;;;5018887;28;20205;-77
2022/07/25 10:54:55;;;;;;;4.73;2.60;;;24.80;99.90;;;;;;5006417;28;20236;-76
2022/07/25 10:57:21;;;;;;;4.90;2.97;;;24.60;99.90;;;;;;4997785;28;20166;-77
2022/07/25 10:59:47;;;;;;;5.07;2.97;;;24.40;99.90;;;;;;5000459;28;20189;-75
2022/07/25 11:02:15;;;;;;;4.77;2.27;;;24.30;99.90;;;;;;4998863;28;20178;-74
2022/07/25 11:04:42;;;;;;;6.00;1.93;;;23.80;99.90;;;;;;4999228;28;20170;-73
2022/07/25 11:07:17;;;;;;;4.40;1.90;;;21.50;99.90;;;;;;4997663;28;20170;-76
2022/07/25 11:09:54;;;;;;;2.30;1.80;;;24.10;99.90;;;;;;4994455;28;20188;-75
2022/07/25 11:12:23;;;;;;;9.47;3.30;;;23.90;99.90;;;;;;4998393;28;20276;-76
2022/07/25 11:14:49;;;;;;;4.80;2.73;;;23.90;99.90;;;;;;4999086;28;20186;-76
2022/07/25 11:17:21;;;;;;;4.83;2.90;;;24.00;99.90;;;;;;4998297;28;20278;-74
2022/07/25 11:20:02;;;;;;;3.80;2.47;;;24.20;99.90;;;;;;4999214;28;20244;-75
2022/07/25 11:22:31;;;;;;;2.37;1.50;;;24.00;99.90;;;;;;4997913;28;20185;-76
2022/07/25 11:25:08;;;;;;;4.90;2.13;;;23.70;99.90;;;;;;4998699;28;20182;-74
2022/07/25 11:27:37;;;;;;;4.10;1.83;;;23.30;99.90;;;;;;4997509;28;20174;-77
2022/07/25 11:30:15;;;;;;;5.87;2.83;;;20.80;99.90;;;;;;4998417;28;20169;-75
2022/07/25 11:33:02;;;;;;;3.57;2.20;;;20.50;99.90;;;;;;4998431;28;20174;-76
2022/07/25 11:35:32;;;;;;;3.27;2.27;;;20.40;99.90;;;;;;4998376;28;20257;-75
2022/07/25 11:38:01;;;;;;;6.47;2.03;;;-30.30;90.60;;;;;;4996555;28;20174;-77
2022/07/25 11:40:27;;;;;;;8.33;1.60;;;-35.50;89.20;;;;;;5001496;28;20320;-75
2022/07/25 11:42:56;;;;;;;2.77;1.20;;;-32.90;90.20;;;;;;5017179;28;20178;-74
2022/07/25 11:45:26;;;;;;;4.10;1.67;;;-26.70;91.80;;;;;;5017589;28;20188;-75
2022/07/25 11:48:12;;;;;;;4.50;2.20;;;-34.50;89.70;;;;;;5017811;28;20186;-74
2022/07/25 11:50:40;;;;;;;2.77;1.57;;;-35.40;89.90;;;;;;5017513;28;20619;-73
2022/07/25 11:53:08;;;;;;;1.77;1.30;;;-39.90;88.80;;;;;;5017877;28;20264;-72
2022/07/25 11:55:39;;;;;;;2.60;1.67;;;-30.50;93.20;;;;;;5017245;28;20169;-74
2022/07/25 11:58:06;;;;;;;3.73;1.57;;;-3.60;99.90;;;;;;5018071;28;20248;-75
2022/07/25 12:00:39;;;;;;;7.10;2.70;;;22.20;99.90;;;;;;5017886;28;20170;-72
2022/07/25 12:03:11;;;;;;;7.03;3.47;;;22.20;99.90;;;;;;5017896;28;20581;-73
2022/07/25 12:05:37;;;;;;;5.30;2.40;;;22.40;99.90;;;;;;5017044;28;20251;-72
2022/07/25 12:08:16;;;;;;;5.10;2.40;;;22.80;99.90;;;;;;5017630;28;20612;-72
2022/07/25 12:10:43;;;;;;;4.67;2.40;;;23.00;99.90;;;;;;5016482;28;20635;-73
2022/07/25 12:13:20;;;;;;;2.33;1.43;;;23.30;99.90;;;;;;5017761;28;20260;-76
2022/07/25 12:15:46;;;;;;;2.37;1.90;;;23.00;99.90;;;;;;5016067;28;20196;-73
2022/07/25 12:18:12;;;;;;;3.10;1.70;;;-35.80;89.50;;;;;;5017235;28;20177;-73
2022/07/25 12:20:41;;;;;;;3.00;2.37;;;-40.00;82.80;;;;;;5017145;28;20256;-73
2022/07/25 12:23:09;;;;;;;2.70;1.97;;;19.20;99.90;;;;;;5016522;28;20181;-73
2022/07/25 12:25:36;;;;;;;7.00;2.93;;;25.20;99.90;;;;;;5017546;28;20161;-73
2022/07/25 12:28:03;;;;;;;3.77;2.10;;;25.30;99.90;;;;;;5005191;28;20248;-74
2022/07/25 12:30:30;;;;;;;4.13;2.03;;;25.20;99.90;;;;;;4997470;28;20193;-74
2022/07/25 12:32:58;;;;;;;5.80;2.00;;;25.00;99.90;;;;;;4998130;28;20261;-73
2022/07/25 12:35:24;;;;;;;2.30;2.13;;;24.70;99.90;;;;;;4996808;28;20216;-74
2022/07/25 12:37:50;;;;;;;6.43;1.80;;;24.30;99.90;;;;;;4997637;28;20166;-74
2022/07/25 12:40:17;;;;;;;2.23;2.00;;;23.40;99.90;;;;;;4997579;28;20174;-73
2022/07/25 12:42:43;;;;;;;2.67;2.33;;;22.50;99.90;;;;;;4997723;28;20724;-74
2022/07/25 12:45:10;;;;;;;5.63;2.47;;;21.70;99.90;;;;;;5000457;28;20232;-73
2022/07/25 12:47:37;;;;;;;9.60;4.00;;;23.50;99.90;;;;;;5001214;28;20210;-73